Time;durP1;ratioP1;P1;durP2;ratioP2;P2;SDS_P1;SDS_P2;PMS_P1;PMS_P2;Temp;Humidity;BMP_temperature;BMP_pressure;BME280_temperature;BME280_humidity;BME280_pressure;Samples;Min_cycle;Max_cycle;Signal;HPM_P1;HPM_P2
2022/07/26 00:01:44;;;;;;;1.90;1.50;;;24.30;35.60;;;;;;5037055;28;20924;-74
2022/07/26 00:04:11;;;;;;;1.50;1.40;;;24.30;35.60;;;;;;5037238;28;20498;-73
2022/07/26 00:06:39;;;;;;;1.40;1.30;;;24.30;35.70;;;;;;5035348;28;20433;-73
2022/07/26 00:09:07;;;;;;;1.60;1.30;;;24.30;35.70;;;;;;5034194;28;20504;-72
2022/07/26 00:11:34;;;;;;;4.50;1.30;;;24.30;35.90;;;;;;5023705;28;20428;-70
2022/07/26 00:14:01;;;;;;;1.50;1.40;;;24.30;36.10;;;;;;5034806;28;20483;-71
2022/07/26 00:16:28;;;;;;;1.20;1.10;;;24.30;36.20;;;;;;5034890;28;20456;-72
2022/07/26 00:18:55;;;;;;;2.77;1.40;;;24.40;36.20;;;;;;5034962;28;20458;-72
2022/07/26 00:21:22;;;;;;;1.87;1.20;;;24.50;36.20;;;;;;5034334;28;20443;-73
2022/07/26 00:23:49;;;;;;;1.37;1.07;;;24.50;36.20;;;;;;5034143;28;20584;-75
2022/07/26 00:26:18;;;;;;;4.07;1.57;;;24.40;36.30;;;;;;5034899;28;20535;-74
2022/07/26 00:28:45;;;;;;;2.20;1.57;;;24.40;36.50;;;;;;5033228;28;20458;-72
2022/07/26 00:31:11;;;;;;;4.27;1.33;;;24.30;36.80;;;;;;5032711;28;20434;-71
2022/07/26 00:33:39;;;;;;;1.80;0.97;;;24.40;36.90;;;;;;5032738;28;20447;-72
2022/07/26 00:36:06;;;;;;;2.93;1.10;;;24.30;37.00;;;;;;5032192;28;20465;-71
2022/07/26 00:38:33;;;;;;;3.43;1.13;;;24.30;37.30;;;;;;5032563;28;20465;-71
2022/07/26 00:41:00;;;;;;;1.33;1.23;;;24.30;37.70;;;;;;5032552;28;20439;-72
2022/07/26 00:43:28;;;;;;;1.40;1.30;;;24.30;37.70;;;;;;5032322;28;20464;-71
2022/07/26 00:45:55;;;;;;;1.60;1.17;;;24.30;37.70;;;;;;5032181;28;20465;-71
2022/07/26 00:48:22;;;;;;;1.87;1.10;;;24.20;37.90;;;;;;5032304;28;20449;-72
2022/07/26 00:50:50;;;;;;;1.40;1.30;;;24.20;38.20;;;;;;5031312;28;20461;-73
2022/07/26 00:53:21;;;;;;;1.40;1.30;;;24.10;38.40;;;;;;5032251;28;20423;-71
2022/07/26 00:55:49;;;;;;;2.77;1.10;;;24.00;38.80;;;;;;5032354;28;20477;-72
2022/07/26 00:58:16;;;;;;;2.00;1.53;;;24.00;39.90;;;;;;5032400;28;20514;-71
2022/07/26 01:00:44;;;;;;;1.87;1.23;;;24.00;39.50;;;;;;5034684;28;20424;-71
2022/07/26 01:03:11;;;;;;;1.17;1.07;;;23.90;39.90;;;;;;5037235;28;20475;-72
2022/07/26 01:05:38;;;;;;;1.50;1.40;;;23.90;39.90;;;;;;5038090;28;20504;-70
2022/07/26 01:08:05;;;;;;;3.53;1.10;;;23.80;40.20;;;;;;5036633;28;20949;-73
2022/07/26 01:10:32;;;;;;;1.30;1.20;;;23.80;40.50;;;;;;5036446;28;20548;-71
2022/07/26 01:13:00;;;;;;;2.10;1.20;;;23.80;40.70;;;;;;5036174;28;20450;-72
2022/07/26 01:15:26;;;;;;;1.60;1.20;;;23.80;40.90;;;;;;5036555;28;20506;-70
2022/07/26 01:17:54;;;;;;;2.93;1.13;;;23.80;41.30;;;;;;5037249;28;20465;-71
2022/07/26 01:20:21;;;;;;;3.80;1.50;;;23.80;41.40;;;;;;5037702;28;20436;-72
2022/07/26 01:22:50;;;;;;;2.53;1.37;;;23.70;42.30;;;;;;5037929;28;20449;-72
2022/07/26 01:25:17;;;;;;;1.27;1.17;;;23.60;42.20;;;;;;5038162;28;20620;-71
2022/07/26 01:27:44;;;;;;;1.33;1.20;;;23.60;43.00;;;;;;5036637;28;20450;-71
2022/07/26 01:30:12;;;;;;;2.40;1.00;;;23.50;44.40;;;;;;5040051;28;20942;-71
2022/07/26 01:32:39;;;;;;;2.00;1.40;;;23.50;45.60;;;;;;5020311;28;20425;-74
2022/07/26 01:35:07;;;;;;;3.40;1.40;;;23.40;46.50;;;;;;5020557;28;20485;-70
2022/07/26 01:37:34;;;;;;;1.30;1.10;;;23.30;46.70;;;;;;5038433;28;20740;-72
2022/07/26 01:40:03;;;;;;;2.07;1.20;;;23.20;47.20;;;;;;5039216;28;20456;-72
2022/07/26 01:42:30;;;;;;;2.90;1.63;;;23.10;48.40;;;;;;5039575;28;20965;-70
2022/07/26 01:44:57;;;;;;;2.17;1.80;;;23.00;49.10;;;;;;5037348;28;20460;-72
2022/07/26 01:47:23;;;;;;;1.37;1.17;;;23.00;50.00;;;;;;5038397;28;20458;-70
2022/07/26 01:49:50;;;;;;;1.73;1.50;;;22.80;49.70;;;;;;5039364;28;20432;-69
2022/07/26 01:52:17;;;;;;;1.50;1.40;;;22.80;50.10;;;;;;5040419;28;20457;-71
2022/07/26 01:54:44;;;;;;;1.33;1.20;;;22.80;49.80;;;;;;5035643;28;20455;-71
2022/07/26 01:57:12;;;;;;;1.50;1.40;;;22.70;49.60;;;;;;5035487;28;20476;-70
2022/07/26 01:59:39;;;;;;;1.53;1.43;;;22.70;50.10;;;;;;5035494;28;20837;-71
2022/07/26 02:02:06;;;;;;;1.93;1.50;;;22.60;50.40;;;;;;5034957;28;20523;-70
2022/07/26 02:07:17;;;;;;;3.00;1.47;;;22.70;50.50;;;;;;5035757;28;20435;-70
2022/07/26 02:09:44;;;;;;;1.10;1.00;;;22.70;50.10;;;;;;5035274;28;20453;-71
2022/07/26 02:12:12;;;;;;;3.40;2.20;;;22.60;49.60;;;;;;5035123;28;20425;-71
2022/07/26 02:14:39;;;;;;;1.33;1.13;;;22.60;49.70;;;;;;5035339;28;20464;-71
2022/07/26 02:17:06;;;;;;;1.23;1.20;;;22.60;50.10;;;;;;5037362;28;20888;-71
2022/07/26 02:19:33;;;;;;;1.50;1.40;;;22.50;50.30;;;;;;5036404;28;20435;-71
2022/07/26 02:22:00;;;;;;;1.30;1.20;;;22.60;50.20;;;;;;5035391;28;20425;-70
2022/07/26 02:24:28;;;;;;;1.97;1.30;;;22.60;50.20;;;;;;5036271;28;20556;-71
2022/07/26 02:26:55;;;;;;;1.47;1.10;;;22.60;49.90;;;;;;5035806;28;20460;-70
2022/07/26 02:29:24;;;;;;;1.20;1.07;;;22.50;50.20;;;;;;5035363;28;20434;-71
2022/07/26 02:31:51;;;;;;;2.13;1.20;;;22.50;50.30;;;;;;5034956;28;20855;-70
2022/07/26 02:34:18;;;;;;;2.07;1.20;;;22.50;50.90;;;;;;5034780;28;20480;-70
2022/07/26 02:36:46;;;;;;;2.33;1.70;;;22.60;50.60;;;;;;5035294;28;20432;-70
2022/07/26 02:39:13;;;;;;;1.57;1.47;;;22.50;50.80;;;;;;5035109;28;20458;-71
2022/07/26 02:41:40;;;;;;;2.77;1.40;;;22.50;51.20;;;;;;5035267;28;20460;-70
2022/07/26 02:44:07;;;;;;;3.10;1.30;;;22.50;51.20;;;;;;5034787;28;20489;-70
2022/07/26 02:46:36;;;;;;;1.73;1.60;;;22.50;51.20;;;;;;5034265;28;20873;-70
2022/07/26 02:49:03;;;;;;;2.53;2.07;;;22.50;51.20;;;;;;5034438;28;20433;-70
2022/07/26 02:51:30;;;;;;;2.83;1.50;;;22.50;51.00;;;;;;5034015;28;20426;-70
2022/07/26 02:53:57;;;;;;;1.20;1.10;;;22.50;50.60;;;;;;5034288;28;20473;-70
2022/07/26 02:56:23;;;;;;;3.37;1.60;;;22.40;51.10;;;;;;5034563;28;20429;-72
2022/07/26 02:58:50;;;;;;;1.80;1.20;;;22.40;51.10;;;;;;5034712;28;20462;-70
2022/07/26 03:01:17;;;;;;;1.53;1.43;;;22.30;51.00;;;;;;5034399;28;20434;-71
2022/07/26 03:03:45;;;;;;;1.30;1.20;;;22.30;51.00;;;;;;5034406;28;20454;-70
2022/07/26 03:06:12;;;;;;;1.23;1.20;;;22.30;51.00;;;;;;5034328;28;20432;-70
2022/07/26 03:08:39;;;;;;;1.87;1.70;;;22.30;51.00;;;;;;5034163;28;20955;-69
2022/07/26 03:11:06;;;;;;;2.30;1.80;;;22.30;51.00;;;;;;5034344;28;20431;-69
2022/07/26 03:13:33;;;;;;;2.00;1.60;;;22.20;51.00;;;;;;5034434;28;20450;-71
2022/07/26 03:16:00;;;;;;;2.63;1.60;;;22.20;50.90;;;;;;5034463;28;20465;-70
2022/07/26 03:18:27;;;;;;;1.40;1.30;;;22.10;50.80;;;;;;5034200;28;20516;-72
2022/07/26 03:20:55;;;;;;;1.67;1.57;;;22.00;51.30;;;;;;5037615;28;20439;-70
2022/07/26 03:23:22;;;;;;;1.73;1.60;;;21.90;51.70;;;;;;5040486;28;20440;-69
2022/07/26 03:25:49;;;;;;;6.37;1.83;;;21.90;52.30;;;;;;5037340;28;20507;-70
2022/07/26 03:28:16;;;;;;;1.90;1.53;;;21.90;52.20;;;;;;5034577;28;20425;-70
2022/07/26 03:30:42;;;;;;;1.63;1.53;;;21.90;52.30;;;;;;5034815;28;20440;-70
2022/07/26 03:33:09;;;;;;;1.40;1.30;;;21.80;52.30;;;;;;5034651;28;20462;-70
2022/07/26 03:35:36;;;;;;;2.70;1.50;;;21.70;52.60;;;;;;5033715;28;20485;-70
2022/07/26 03:38:04;;;;;;;1.63;1.53;;;21.80;52.80;;;;;;5035945;28;20429;-72
2022/07/26 03:40:31;;;;;;;1.50;1.40;;;21.70;53.10;;;;;;5045428;28;20512;-71
2022/07/26 03:42:58;;;;;;;1.60;1.50;;;21.70;53.10;;;;;;5045473;28;20446;-70
2022/07/26 03:45:25;;;;;;;3.33;2.13;;;21.70;53.40;;;;;;5041204;28;20481;-69
2022/07/26 03:47:52;;;;;;;3.03;2.40;;;21.60;53.80;;;;;;5034590;28;20480;-70
2022/07/26 03:50:19;;;;;;;1.70;1.60;;;21.50;54.10;;;;;;5034065;28;20462;-71
2022/07/26 03:52:45;;;;;;;2.10;1.93;;;21.50;54.30;;;;;;5040709;28;20444;-72
2022/07/26 03:57:58;;;;;;;4.13;1.80;;;21.40;55.00;;;;;;5039543;28;20519;-70
2022/07/26 04:00:25;;;;;;;2.20;2.00;;;21.40;55.40;;;;;;5034277;28;20515;-70
2022/07/26 04:02:52;;;;;;;2.37;1.60;;;21.30;55.40;;;;;;5033299;28;20420;-71
2022/07/26 04:05:19;;;;;;;2.27;2.00;;;21.30;55.50;;;;;;5032836;28;20549;-70
2022/07/26 04:07:47;;;;;;;1.97;1.73;;;21.20;55.80;;;;;;5033096;28;20793;-70
2022/07/26 04:10:16;;;;;;;2.57;1.80;;;21.30;55.90;;;;;;5033015;28;20454;-70
2022/07/26 04:12:43;;;;;;;2.57;1.90;;;21.30;56.00;;;;;;5033526;28;20951;-72
2022/07/26 04:15:10;;;;;;;2.70;1.70;;;21.20;55.90;;;;;;5037512;28;20561;-70
2022/07/26 04:17:38;;;;;;;4.10;2.10;;;21.30;55.90;;;;;;5033452;28;20447;-70
2022/07/26 04:20:06;;;;;;;3.80;1.87;;;21.30;55.70;;;;;;5033140;28;20454;-71
2022/07/26 04:22:35;;;;;;;1.70;1.60;;;21.30;55.80;;;;;;5032801;28;20500;-71
2022/07/26 04:25:01;;;;;;;3.00;1.80;;;21.20;56.00;;;;;;5034299;28;20509;-70
2022/07/26 04:27:30;;;;;;;1.90;1.80;;;21.20;56.10;;;;;;5035525;28;20443;-70
2022/07/26 04:29:57;;;;;;;2.70;2.07;;;21.30;56.00;;;;;;5016246;28;20433;-70
2022/07/26 04:32:24;;;;;;;2.40;1.53;;;21.40;55.50;;;;;;5028770;28;20482;-71
2022/07/26 04:34:51;;;;;;;1.90;1.80;;;21.50;55.00;;;;;;5031868;28;20474;-73
2022/07/26 04:37:18;;;;;;;2.00;1.57;;;21.60;54.30;;;;;;5044426;28;20453;-70
2022/07/26 04:39:45;;;;;;;1.73;1.63;;;21.70;53.70;;;;;;5046827;28;20444;-70
2022/07/26 04:42:11;;;;;;;3.70;2.10;;;21.70;53.70;;;;;;5044349;28;20468;-71
2022/07/26 04:44:40;;;;;;;2.70;2.00;;;21.80;53.30;;;;;;5048585;28;20639;-70
2022/07/26 04:47:06;;;;;;;1.70;1.60;;;21.70;53.50;;;;;;5043988;28;20475;-70
2022/07/26 04:49:33;;;;;;;1.87;1.77;;;21.60;53.70;;;;;;5045709;28;20468;-69
2022/07/26 04:52:00;;;;;;;3.13;1.67;;;21.70;53.80;;;;;;5038292;28;20458;-70
2022/07/26 04:54:27;;;;;;;4.90;1.67;;;21.60;53.80;;;;;;5033022;28;20485;-70
2022/07/26 04:56:54;;;;;;;3.03;1.70;;;21.60;55.00;;;;;;5032380;28;20452;-69
2022/07/26 04:59:20;;;;;;;2.90;2.30;;;21.60;54.40;;;;;;5013198;28;20461;-70
2022/07/26 05:01:48;;;;;;;3.23;2.20;;;21.60;54.10;;;;;;5018808;28;20454;-71
2022/07/26 05:04:15;;;;;;;1.87;1.60;;;21.60;54.40;;;;;;5032850;28;20457;-70
2022/07/26 05:06:42;;;;;;;3.50;1.87;;;21.60;54.50;;;;;;5036526;28;20464;-71
2022/07/26 05:09:09;;;;;;;9.93;1.80;;;21.80;54.00;;;;;;5040053;28;20441;-71
2022/07/26 05:11:36;;;;;;;2.93;2.07;;;22.00;52.90;;;;;;5046453;28;20430;-73
2022/07/26 05:14:03;;;;;;;2.07;1.87;;;22.10;51.90;;;;;;5034799;28;21133;-71
2022/07/26 05:16:30;;;;;;;2.80;1.80;;;22.30;51.00;;;;;;5032704;28;20426;-70
2022/07/26 05:18:58;;;;;;;2.80;2.10;;;23.10;48.90;;;;;;5032732;28;20420;-71
2022/07/26 05:21:26;;;;;;;3.63;1.90;;;23.30;46.70;;;;;;5032650;28;20436;-71
2022/07/26 05:23:53;;;;;;;4.50;2.20;;;23.30;46.70;;;;;;5031952;28;20992;-71
2022/07/26 05:26:20;;;;;;;2.70;1.93;;;23.30;46.20;;;;;;5032672;28;20498;-71
2022/07/26 05:28:47;;;;;;;2.90;2.37;;;23.10;46.50;;;;;;5033001;28;20443;-71
2022/07/26 05:31:15;;;;;;;3.63;1.90;;;22.80;46.50;;;;;;5031556;28;20420;-70
2022/07/26 05:33:42;;;;;;;4.70;2.10;;;22.70;47.00;;;;;;5032447;28;20456;-70
2022/07/26 05:36:10;;;;;;;4.43;1.93;;;22.60;46.60;;;;;;5033544;28;20455;-69
2022/07/26 05:38:37;;;;;;;3.20;1.70;;;22.50;46.80;;;;;;5032764;28;20825;-71
2022/07/26 05:41:05;;;;;;;7.70;2.07;;;22.50;46.90;;;;;;5036550;28;20429;-70
2022/07/26 05:43:32;;;;;;;2.23;1.83;;;22.60;45.90;;;;;;5046265;28;20520;-73
2022/07/26 05:45:59;;;;;;;5.13;1.80;;;22.50;45.50;;;;;;5048397;28;20489;-72
2022/07/26 05:48:26;;;;;;;3.10;2.07;;;22.40;46.10;;;;;;5051293;28;20474;-71
2022/07/26 05:50:53;;;;;;;2.70;2.10;;;22.40;45.60;;;;;;5050053;28;20427;-71
2022/07/26 05:53:22;;;;;;;2.80;2.00;;;22.60;45.10;;;;;;5048128;28;20960;-70
2022/07/26 05:55:48;;;;;;;2.13;1.63;;;23.20;43.20;;;;;;5045610;28;20512;-70
2022/07/26 05:58:15;;;;;;;3.20;1.57;;;24.20;40.50;;;;;;5035903;28;20461;-70
2022/07/26 06:00:42;;;;;;;4.93;1.87;;;25.10;37.70;;;;;;5035720;28;20458;-70
2022/07/26 06:03:24;;;;;;;2.40;1.53;;;25.60;36.20;;;;;;5037224;28;20958;-73
2022/07/26 06:05:53;;;;;;;2.93;1.47;;;26.10;33.90;;;;;;5037662;28;20525;-70
2022/07/26 06:08:21;;;;;;;2.77;1.70;;;26.00;33.80;;;;;;5039425;28;20488;-72
2022/07/26 06:10:49;;;;;;;2.00;1.80;;;25.20;35.20;;;;;;5041724;28;20457;-72
2022/07/26 06:13:16;;;;;;;6.23;1.77;;;24.70;36.70;;;;;;5041775;28;20526;-72
2022/07/26 06:15:45;;;;;;;4.33;1.40;;;24.40;36.90;;;;;;5040240;28;20449;-71
2022/07/26 06:18:12;;;;;;;3.03;1.57;;;23.80;38.00;;;;;;5038840;28;20442;-72
2022/07/26 06:20:39;;;;;;;2.03;1.40;;;23.30;39.30;;;;;;5040911;28;20529;-72
2022/07/26 06:23:06;;;;;;;3.13;1.40;;;23.10;39.60;;;;;;5037314;28;20467;-72
2022/07/26 06:25:35;;;;;;;4.77;1.33;;;23.00;40.30;;;;;;5036509;28;20469;-72
2022/07/26 06:28:02;;;;;;;3.73;1.70;;;23.70;38.60;;;;;;5037916;28;20435;-71
2022/07/26 06:30:30;;;;;;;2.60;1.70;;;24.60;36.40;;;;;;5034465;28;20476;-73
2022/07/26 06:32:56;;;;;;;2.73;1.70;;;25.20;33.50;;;;;;5034477;28;20447;-70
2022/07/26 06:35:24;;;;;;;3.13;1.23;;;25.60;33.50;;;;;;5034259;28;20490;-71
2022/07/26 06:37:51;;;;;;;2.57;1.30;;;25.80;32.60;;;;;;5033991;28;20458;-70
2022/07/26 06:40:17;;;;;;;1.87;1.17;;;25.40;33.40;;;;;;5030168;28;20477;-70
2022/07/26 06:42:46;;;;;;;3.07;1.50;;;25.40;34.20;;;;;;5033782;28;20450;-74
2022/07/26 06:45:12;;;;;;;1.60;1.17;;;25.80;31.50;;;;;;5032294;28;21164;-72
2022/07/26 06:47:39;;;;;;;1.90;1.40;;;26.00;31.20;;;;;;5028305;28;20455;-71
2022/07/26 06:50:07;;;;;;;4.90;1.27;;;25.90;30.20;;;;;;5037340;28;20433;-72
2022/07/26 06:52:34;;;;;;;6.47;1.77;;;25.50;30.70;;;;;;5034800;28;20969;-72
2022/07/26 06:55:01;;;;;;;1.47;1.37;;;24.80;32.90;;;;;;5034620;28;20912;-73
2022/07/26 06:57:28;;;;;;;2.10;1.20;;;24.30;32.50;;;;;;5024681;28;20452;-72
2022/07/26 06:59:56;;;;;;;2.50;1.30;;;24.30;32.70;;;;;;5034636;28;20434;-73
2022/07/26 07:02:23;;;;;;;2.73;1.53;;;24.20;32.40;;;;;;5034840;28;21094;-71
2022/07/26 07:04:50;;;;;;;3.33;1.40;;;24.00;33.80;;;;;;5035636;28;20485;-70
2022/07/26 07:07:16;;;;;;;6.67;1.20;;;23.90;33.90;;;;;;5018670;28;20489;-71
2022/07/26 07:09:43;;;;;;;4.00;1.20;;;24.00;33.10;;;;;;5034410;28;20458;-71
2022/07/26 07:12:10;;;;;;;3.47;1.53;;;24.00;33.60;;;;;;5033963;28;20453;-71
2022/07/26 07:14:37;;;;;;;2.77;1.33;;;24.00;32.90;;;;;;5034762;28;20481;-71
2022/07/26 07:17:06;;;;;;;3.80;1.37;;;23.90;34.00;;;;;;5033892;28;20424;-72
2022/07/26 07:19:35;;;;;;;1.60;1.13;;;23.90;32.90;;;;;;5034110;28;20460;-70
2022/07/26 07:22:02;;;;;;;2.43;1.43;;;23.80;33.50;;;;;;5018976;28;20476;-72
2022/07/26 07:24:29;;;;;;;2.60;1.43;;;23.70;35.00;;;;;;5016425;28;20453;-75
2022/07/26 07:26:55;;;;;;;2.70;1.67;;;23.60;34.00;;;;;;5016637;28;20497;-72
2022/07/26 07:29:22;;;;;;;3.70;1.80;;;23.30;33.70;;;;;;5031882;28;20425;-72
2022/07/26 07:31:49;;;;;;;4.93;1.33;;;23.00;34.70;;;;;;5034032;28;20944;-73
2022/07/26 07:34:21;;;;;;;4.93;1.73;;;22.90;35.00;;;;;;5026389;28;20457;-74
2022/07/26 07:36:48;;;;;;;9.13;1.60;;;23.00;35.20;;;;;;5022398;28;20453;-74
2022/07/26 07:39:15;;;;;;;4.90;1.30;;;23.00;35.20;;;;;;5017549;28;20425;-75
2022/07/26 07:41:42;;;;;;;2.70;1.13;;;22.90;35.40;;;;;;5034588;28;20454;-74
2022/07/26 07:44:09;;;;;;;3.00;1.30;;;22.90;34.70;;;;;;5031403;28;20570;-74
2022/07/26 07:46:36;;;;;;;2.40;1.03;;;22.90;34.90;;;;;;5036222;28;21001;-75
2022/07/26 07:49:03;;;;;;;3.77;1.07;;;23.00;34.60;;;;;;5036493;28;20424;-76
2022/07/26 07:51:32;;;;;;;2.00;1.20;;;22.90;34.50;;;;;;5038209;28;20468;-76
2022/07/26 07:53:59;;;;;;;13.57;1.23;;;22.90;34.50;;;;;;5029036;28;20484;-75
2022/07/26 07:56:26;;;;;;;1.27;1.07;;;22.90;34.90;;;;;;5032019;28;20451;-71
2022/07/26 07:58:52;;;;;;;2.60;1.33;;;23.10;34.70;;;;;;5028411;28;20451;-74
2022/07/26 08:01:19;;;;;;;5.80;1.53;;;23.10;34.40;;;;;;5039763;28;20428;-74
2022/07/26 08:03:46;;;;;;;2.80;1.40;;;23.20;33.60;;;;;;5041032;28;20449;-74
2022/07/26 08:06:13;;;;;;;3.03;1.30;;;23.20;33.40;;;;;;5039568;28;20452;-75
2022/07/26 08:08:41;;;;;;;3.50;1.40;;;23.30;33.60;;;;;;5030583;28;20485;-73
2022/07/26 08:11:09;;;;;;;2.67;1.40;;;23.50;33.30;;;;;;5020868;28;20521;-73
2022/07/26 08:13:36;;;;;;;2.87;1.77;;;23.70;33.10;;;;;;5034869;28;20517;-74
2022/07/26 08:16:02;;;;;;;2.90;1.20;;;23.80;32.60;;;;;;5034977;28;20507;-72
2022/07/26 08:18:29;;;;;;;2.00;1.50;;;23.80;32.00;;;;;;5036777;28;20426;-74
2022/07/26 08:20:56;;;;;;;4.73;1.47;;;23.80;32.10;;;;;;5037751;28;20454;-75
2022/07/26 08:23:23;;;;;;;2.60;1.53;;;23.80;32.00;;;;;;5039722;28;20446;-73
2022/07/26 08:25:51;;;;;;;9.13;1.23;;;23.70;32.50;;;;;;5039217;28;20546;-72
2022/07/26 08:28:18;;;;;;;3.70;1.40;;;23.50;32.30;;;;;;5024874;28;20433;-76
2022/07/26 08:30:45;;;;;;;2.83;1.20;;;23.60;32.60;;;;;;5018864;28;20458;-74
2022/07/26 08:33:12;;;;;;;1.27;1.17;;;24.00;32.20;;;;;;5037843;28;20422;-72
2022/07/26 08:35:39;;;;;;;2.83;0.90;;;24.20;32.40;;;;;;5032108;28;20469;-72
2022/07/26 08:38:06;;;;;;;1.43;1.33;;;24.20;32.40;;;;;;5036495;28;20431;-75
2022/07/26 08:40:33;;;;;;;1.30;1.20;;;24.20;31.60;;;;;;5036469;28;20469;-74
2022/07/26 08:43:02;;;;;;;3.07;1.27;;;24.00;32.20;;;;;;5041986;28;20452;-73
2022/07/26 08:45:31;;;;;;;3.70;1.03;;;24.00;32.20;;;;;;5036967;28;20485;-74
2022/07/26 08:47:59;;;;;;;1.63;1.03;;;24.10;31.10;;;;;;5038928;28;20499;-81
2022/07/26 08:50:26;;;;;;;1.80;1.03;;;24.30;30.90;;;;;;5037047;28;20492;-74
2022/07/26 08:53:00;;;;;;;2.27;1.20;;;24.30;30.60;;;;;;5022922;28;20436;-82
2022/07/26 08:55:27;;;;;;;1.93;1.07;;;24.30;31.70;;;;;;5015408;28;20446;-72
2022/07/26 08:57:54;;;;;;;1.77;1.00;;;24.30;30.00;;;;;;5016292;28;20473;-72
2022/07/26 09:00:25;;;;;;;2.93;1.37;;;24.50;29.70;;;;;;5015435;28;20447;-70
2022/07/26 09:02:53;;;;;;;1.30;1.20;;;24.50;29.70;;;;;;5014718;28;20454;-71
2022/07/26 09:05:25;;;;;;;6.10;1.10;;;24.50;29.70;;;;;;5015038;28;20475;-71
2022/07/26 09:07:52;;;;;;;6.50;1.30;;;24.60;29.70;;;;;;5015713;28;21077;-72
2022/07/26 09:10:19;;;;;;;2.63;0.80;;;24.90;29.00;;;;;;5016594;28;20463;-71
2022/07/26 09:12:52;;;;;;;1.93;1.20;;;25.00;28.40;;;;;;5017275;28;20533;-75
2022/07/26 09:15:23;;;;;;;2.20;1.07;;;24.80;29.20;;;;;;5032746;28;20512;-73
2022/07/26 09:17:54;;;;;;;3.17;1.00;;;24.70;29.30;;;;;;5049470;28;20504;-72
2022/07/26 09:20:22;;;;;;;1.60;1.10;;;24.80;29.30;;;;;;5049774;28;20500;-72
2022/07/26 09:23:02;;;;;;;2.87;0.90;;;25.20;28.70;;;;;;5042631;28;20473;-71
2022/07/26 09:25:31;;;;;;;2.50;1.30;;;25.40;28.10;;;;;;5035964;28;20780;-71
2022/07/26 09:27:59;;;;;;;1.30;1.00;;;25.50;27.30;;;;;;5038110;28;20466;-70
2022/07/26 09:30:28;;;;;;;1.70;0.80;;;25.60;27.10;;;;;;5038893;28;20490;-70
2022/07/26 09:33:01;;;;;;;1.03;0.80;;;25.70;27.00;;;;;;5037920;28;20468;-71
2022/07/26 09:35:28;;;;;;;2.90;0.93;;;25.60;27.10;;;;;;5039195;28;20482;-73
2022/07/26 09:37:56;;;;;;;1.23;1.03;;;25.50;27.00;;;;;;5038373;28;20428;-71
2022/07/26 09:40:31;;;;;;;1.03;0.80;;;25.30;27.50;;;;;;5037569;28;20835;-72
2022/07/26 09:42:59;;;;;;;1.23;0.83;;;25.30;27.50;;;;;;5037827;28;20453;-70
2022/07/26 09:45:29;;;;;;;1.27;1.17;;;25.00;27.70;;;;;;5038036;28;20469;-72
2022/07/26 09:47:56;;;;;;;0.87;0.80;;;25.00;26.80;;;;;;5037803;28;20493;-71
2022/07/26 09:50:25;;;;;;;4.03;1.03;;;25.20;26.70;;;;;;5037533;28;20469;-71
2022/07/26 09:53:03;;;;;;;3.50;1.10;;;25.40;26.40;;;;;;5037587;28;20436;-72
2022/07/26 09:55:31;;;;;;;3.53;1.27;;;25.30;26.50;;;;;;5037895;28;20469;-71
2022/07/26 09:58:02;;;;;;;2.17;0.87;;;25.10;26.70;;;;;;5038809;28;20539;-72
2022/07/26 10:00:31;;;;;;;2.33;1.00;;;25.20;27.00;;;;;;5038425;28;20461;-73
2022/07/26 10:02:58;;;;;;;0.80;0.80;;;25.60;26.50;;;;;;5036637;28;20458;-72
2022/07/26 10:05:26;;;;;;;1.30;1.03;;;26.00;26.00;;;;;;5036348;28;20830;-70
2022/07/26 10:07:54;;;;;;;1.37;1.17;;;25.90;25.40;;;;;;5035350;28;20490;-71
2022/07/26 10:10:27;;;;;;;4.97;1.00;;;25.80;25.40;;;;;;5041261;28;20433;-70
2022/07/26 10:12:54;;;;;;;2.80;1.10;;;25.90;25.00;;;;;;5038219;28;20501;-71
2022/07/26 10:15:37;;;;;;;1.10;1.00;;;26.00;25.40;;;;;;5037487;28;20471;-70
2022/07/26 10:18:07;;;;;;;1.10;0.77;;;25.80;24.70;;;;;;5038661;28;20545;-71
2022/07/26 10:20:45;;;;;;;2.87;1.10;;;25.80;24.70;;;;;;5038371;28;20851;-71
2022/07/26 10:23:42;;;;;;;0.77;0.77;;;26.10;24.90;;;;;;5038381;28;20465;-71
2022/07/26 10:26:11;;;;;;;0.87;0.80;;;26.60;24.00;;;;;;5043894;28;20463;-72
2022/07/26 10:28:41;;;;;;;0.83;0.80;;;26.90;23.60;;;;;;5040977;28;20515;-71
2022/07/26 10:31:33;;;;;;;1.80;0.90;;;26.90;23.40;;;;;;5039228;28;20451;-73
2022/07/26 10:34:01;;;;;;;1.37;0.80;;;26.50;24.40;;;;;;5035209;28;20448;-72
2022/07/26 10:36:34;;;;;;;1.07;0.83;;;26.30;24.90;;;;;;5035680;28;20441;-71
2022/07/26 10:39:06;;;;;;;1.50;0.97;;;26.00;24.80;;;;;;5035965;28;20482;-71
2022/07/26 10:41:39;;;;;;;3.73;1.17;;;25.60;24.60;;;;;;5035153;28;20454;-70
2022/07/26 10:44:25;;;;;;;2.27;1.20;;;25.60;24.60;;;;;;5035704;28;20476;-70
2022/07/26 10:47:03;;;;;;;1.80;0.90;;;25.70;24.70;;;;;;5035806;28;20488;-71
2022/07/26 10:49:32;;;;;;;3.13;1.10;;;25.60;24.60;;;;;;5036853;28;20466;-70
2022/07/26 10:52:07;;;;;;;3.40;1.10;;;25.30;24.80;;;;;;5036610;28;20432;-73
2022/07/26 10:55:05;;;;;;;1.23;0.60;;;25.30;25.40;;;;;;5037862;28;20481;-70
2022/07/26 10:57:34;;;;;;;2.10;0.90;;;25.20;26.10;;;;;;5036964;28;20461;-71
2022/07/26 11:00:03;;;;;;;12.13;1.60;;;25.50;25.10;;;;;;5036130;28;20772;-70
2022/07/26 11:02:32;;;;;;;0.70;0.70;;;26.00;24.80;;;;;;5036292;28;20939;-71
2022/07/26 11:05:00;;;;;;;2.97;1.00;;;26.20;24.20;;;;;;5038631;28;20453;-72
2022/07/26 11:07:27;;;;;;;2.07;0.80;;;26.30;24.60;;;;;;5038510;28;20488;-71
2022/07/26 11:09:56;;;;;;;2.50;1.00;;;26.50;24.20;;;;;;5043116;28;20562;-73
2022/07/26 11:12:23;;;;;;;1.57;1.00;;;26.50;23.70;;;;;;5052916;28;20436;-70
2022/07/26 11:14:52;;;;;;;1.67;1.20;;;26.10;24.90;;;;;;5055247;28;20550;-70
2022/07/26 11:17:25;;;;;;;2.03;1.13;;;26.30;25.00;;;;;;5051165;28;20482;-71
2022/07/26 11:19:54;;;;;;;1.57;0.90;;;26.70;23.60;;;;;;5042904;28;20455;-71
2022/07/26 11:22:22;;;;;;;2.03;0.90;;;26.70;23.80;;;;;;5036576;28;20465;-73
2022/07/26 11:24:48;;;;;;;1.27;0.90;;;26.70;23.90;;;;;;5036883;28;20485;-70
2022/07/26 11:27:15;;;;;;;2.23;1.10;;;27.10;23.20;;;;;;5037222;28;20465;-71
2022/07/26 11:29:42;;;;;;;2.13;0.77;;;27.40;22.30;;;;;;5036787;28;20506;-69
2022/07/26 11:32:16;;;;;;;0.67;0.67;;;27.00;22.70;;;;;;5037728;28;20450;-71
2022/07/26 11:34:44;;;;;;;1.50;0.70;;;27.00;22.80;;;;;;5035177;28;20546;-70
2022/07/26 11:37:12;;;;;;;2.20;1.03;;;27.10;22.60;;;;;;5037483;28;20817;-70
2022/07/26 11:39:39;;;;;;;2.30;1.07;;;26.90;22.90;;;;;;5037305;28;20475;-70
2022/07/26 11:42:08;;;;;;;1.93;1.07;;;27.10;23.80;;;;;;5044187;28;20460;-71
2022/07/26 11:44:35;;;;;;;2.20;1.23;;;27.40;22.90;;;;;;5045876;28;20545;-72
2022/07/26 11:47:12;;;;;;;1.27;0.80;;;27.70;21.60;;;;;;5055582;28;20475;-75
2022/07/26 11:49:40;;;;;;;1.03;0.90;;;27.50;22.10;;;;;;5056829;28;20449;-72
2022/07/26 11:52:07;;;;;;;1.83;0.93;;;27.80;21.60;;;;;;5053560;28;20993;-76
2022/07/26 11:54:44;;;;;;;0.97;0.87;;;28.10;20.80;;;;;;5045783;28;20480;-74
2022/07/26 11:57:11;;;;;;;2.07;0.83;;;28.00;20.20;;;;;;5039945;28;20459;-76
2022/07/26 11:59:39;;;;;;;1.20;1.00;;;27.80;21.10;;;;;;5036550;28;20789;-75
2022/07/26 12:02:08;;;;;;;1.23;0.80;;;27.90;21.70;;;;;;5036202;28;20804;-77
2022/07/26 12:04:37;;;;;;;3.63;1.20;;;28.20;20.20;;;;;;5033368;28;20459;-73
2022/07/26 12:07:09;;;;;;;2.37;1.20;;;27.90;20.20;;;;;;5034090;28;20541;-73
2022/07/26 12:09:39;;;;;;;2.17;1.00;;;27.40;21.40;;;;;;5033300;28;20511;-75
2022/07/26 12:12:08;;;;;;;3.20;1.03;;;26.90;21.10;;;;;;5034651;28;20915;-78
2022/07/26 12:14:36;;;;;;;0.90;0.90;;;26.90;21.50;;;;;;5036064;28;20474;-76
2022/07/26 12:17:13;;;;;;;1.13;1.00;;;27.00;21.70;;;;;;5035300;28;20791;-77
2022/07/26 12:19:41;;;;;;;0.90;0.77;;;27.20;21.20;;;;;;5034706;28;20425;-76
2022/07/26 12:22:11;;;;;;;0.97;0.90;;;27.30;21.30;;;;;;5034740;28;20928;-77
2022/07/26 12:24:54;;;;;;;1.70;1.00;;;27.70;20.90;;;;;;5033683;28;20484;-78
2022/07/26 12:27:22;;;;;;;3.60;1.00;;;27.70;21.50;;;;;;5031489;28;20605;-78
2022/07/26 12:29:51;;;;;;;1.20;0.87;;;28.00;21.30;;;;;;5015831;28;20458;-76
2022/07/26 12:32:19;;;;;;;1.97;1.20;;;28.30;19.50;;;;;;5017738;28;20557;-74
2022/07/26 12:34:58;;;;;;;0.80;0.80;;;28.10;18.50;;;;;;5035745;28;20523;-77
2022/07/26 12:37:28;;;;;;;3.13;1.00;;;27.90;20.70;;;;;;5035772;28;20902;-75
2022/07/26 12:40:06;;;;;;;0.87;0.87;;;27.60;20.30;;;;;;5015266;28;20507;-76
2022/07/26 12:42:35;;;;;;;0.80;0.77;;;27.10;20.90;;;;;;5033155;28;20549;-74
2022/07/26 12:45:05;;;;;;;0.90;0.80;;;26.90;21.10;;;;;;5036591;28;20466;-76
2022/07/26 12:47:32;;;;;;;0.77;0.77;;;26.80;21.00;;;;;;5037511;28;20467;-76
2022/07/26 12:49:59;;;;;;;1.10;0.90;;;26.80;21.80;;;;;;5038555;28;20449;-76
2022/07/26 12:52:26;;;;;;;3.83;1.00;;;26.90;21.70;;;;;;5035265;28;20430;-75
2022/07/26 12:54:53;;;;;;;2.47;1.03;;;27.10;21.20;;;;;;5034620;28;20552;-76
2022/07/26 12:57:22;;;;;;;1.43;0.90;;;27.30;21.30;;;;;;5035475;28;20822;-75
2022/07/26 12:59:49;;;;;;;3.83;1.13;;;27.50;21.40;;;;;;5036315;28;20457;-76